createdAt,value
2023-02-25T00:02:30.767Z,95947.06
2023-02-25T00:07:32.848Z,95950.72
2023-02-25T00:12:35.123Z,95947.84
2023-02-25T00:17:40.104Z,95946.09
2023-02-25T00:22:42.118Z,95959.06
2023-02-25T00:27:44.420Z,95957.13
2023-02-25T00:32:46.316Z,95953.75
2023-02-25T00:37:50.826Z,95954.84
2023-02-25T00:42:53.177Z,95952.13
2023-02-25T00:47:56.092Z,95953.38
2023-02-25T00:52:57.985Z,95946.34
2023-02-25T00:58:01.516Z,95943.44
2023-02-25T01:03:03.404Z,95930.09
2023-02-25T01:08:06.702Z,95926.44
2023-02-25T01:13:08.584Z,95925.38
2023-02-25T01:18:10.479Z,95928.59
2023-02-25T01:23:12.528Z,95934.66
2023-02-25T01:28:14.508Z,95940.59
2023-02-25T01:33:16.376Z,95946.03
2023-02-25T01:38:19.092Z,95948.25
2023-02-25T01:43:20.951Z,95941.06
2023-02-25T01:48:27.444Z,95947.16
2023-02-25T01:53:35.402Z,95955.47
2023-02-25T01:58:38.413Z,95954.22
2023-02-25T02:03:43.264Z,95949.59
2023-02-25T02:08:45.818Z,95956.63
2023-02-25T02:13:52.014Z,95952.28
2023-02-25T02:19:26.466Z,95946.97
2023-02-25T02:24:54.634Z,95945.28
2023-02-25T02:30:11.691Z,95942.91
2023-02-25T02:35:27.531Z,95944.69
2023-02-25T02:41:08.823Z,95942.63
2023-02-25T02:46:38.387Z,95937.50
2023-02-25T02:52:15.322Z,95938.97
2023-02-25T02:57:21.877Z,95932.13
2023-02-25T03:02:38.936Z,95933.06
2023-02-25T03:07:48.700Z,95934.50
2023-02-25T03:12:50.715Z,95933.03
2023-02-25T03:17:59.380Z,95934.94
2023-02-25T03:23:09.376Z,95935.28
2023-02-25T03:28:30.612Z,95932.91
2023-02-25T03:33:41.259Z,95944.28
2023-02-25T03:38:48.116Z,95949.41
2023-02-25T03:43:55.216Z,95949.56
2023-02-25T03:49:00.525Z,95953.09
2023-02-25T03:54:02.691Z,95957.06
2023-02-25T03:59:07.893Z,95962.50
2023-02-25T04:04:10.224Z,95961.22
2023-02-25T04:09:12.211Z,95974.81
2023-02-25T04:14:15.657Z,95975.13
2023-02-25T04:19:18.677Z,95992.28
2023-02-25T04:24:20.599Z,95979.97
2023-02-25T04:29:22.440Z,95982.38
2023-02-25T04:34:24.794Z,95985.09
2023-02-25T04:39:26.610Z,95992.00
2023-02-25T04:44:28.465Z,95991.03
2023-02-25T04:49:30.323Z,95978.22
2023-02-25T04:54:32.273Z,95985.41
2023-02-25T04:59:34.416Z,95985.59
2023-02-25T05:04:37.903Z,96000.31
2023-02-25T05:09:39.856Z,95996.31
2023-02-25T05:14:41.870Z,95997.25
2023-02-25T05:19:43.726Z,96003.97
2023-02-25T05:24:45.588Z,96046.09
2023-02-25T05:29:47.438Z,96035.63
2023-02-25T05:34:49.395Z,96041.69
2023-02-25T05:39:51.249Z,96043.47
2023-02-25T05:44:53.078Z,96041.53
2023-02-25T05:49:55.074Z,96051.00
2023-02-25T05:54:56.876Z,96056.63
2023-02-25T05:59:58.733Z,96052.47
2023-02-25T06:05:00.545Z,96057.28
2023-02-25T06:10:02.379Z,96064.16
2023-02-25T06:15:04.378Z,96070.56
2023-02-25T06:20:07.141Z,96076.47
2023-02-25T06:25:09.342Z,96088.47
2023-02-25T06:30:11.642Z,96090.72
2023-02-25T06:35:14.409Z,96107.50
2023-02-25T06:40:16.694Z,96113.41
2023-02-25T06:45:18.591Z,96126.94
2023-02-25T06:50:20.430Z,96128.09
2023-02-25T06:55:22.283Z,96139.25
2023-02-25T07:00:24.132Z,96140.88
2023-02-25T07:05:25.965Z,96142.13
2023-02-25T07:10:27.767Z,96147.75
2023-02-25T07:15:29.617Z,96154.13
2023-02-25T07:20:31.550Z,96158.28
2023-02-25T07:25:33.573Z,96158.28
2023-02-25T07:30:36.006Z,96165.00
2023-02-25T07:35:37.850Z,96174.56
2023-02-25T07:40:41.366Z,96180.47
2023-02-25T07:45:43.181Z,96177.06
2023-02-25T07:50:45.021Z,96178.03
2023-02-25T07:55:46.852Z,96184.44
2023-02-25T08:00:48.664Z,96180.91
2023-02-25T08:05:51.980Z,96190.75
2023-02-25T08:10:53.971Z,96202.91
2023-02-25T08:15:55.882Z,96207.34
2023-02-25T08:20:58.468Z,96203.38
2023-02-25T08:26:00.494Z,96204.38
2023-02-25T08:31:03.234Z,96210.31
2023-02-25T08:36:16.163Z,96205.75
2023-02-25T08:41:19.986Z,96206.69
2023-02-25T08:46:24.035Z,96216.84
2023-02-25T08:51:35.333Z,96227.94
2023-02-25T08:56:37.750Z,96231.56
2023-02-25T09:01:45.531Z,96239.94
2023-02-25T09:06:48.469Z,96250.19
2023-02-25T09:11:51.018Z,96240.59
2023-02-25T09:16:53.042Z,96248.75
2023-02-25T09:21:55.493Z,96261.13
2023-02-25T09:26:57.332Z,96263.00
2023-02-25T09:31:59.366Z,96277.41
2023-02-25T09:37:04.751Z,96278.75
2023-02-25T09:42:22.729Z,96289.81
2023-02-25T09:47:38.898Z,96289.63
2023-02-25T09:52:53.742Z,96294.41
2023-02-25T09:58:20.072Z,96302.97
2023-02-25T10:03:39.228Z,96310.34
2023-02-25T10:09:09.738Z,96312.41
2023-02-25T10:14:20.772Z,96326.06
2023-02-25T10:19:52.054Z,96328.19
2023-02-25T10:25:03.327Z,96340.59
2023-02-25T10:30:28.214Z,96353.78
2023-02-25T10:35:37.280Z,96358.50
2023-02-25T10:40:41.033Z,96361.00
2023-02-25T10:45:47.151Z,96371.47
2023-02-25T10:51:14.929Z,96376.03
2023-02-25T10:56:16.750Z,96384.06
2023-02-25T11:01:21.693Z,96384.69
2023-02-25T11:06:28.101Z,96387.06
2023-02-25T11:11:34.477Z,96388.53
2023-02-25T11:16:38.882Z,96388.19
2023-02-25T11:21:41.421Z,96387.53
2023-02-25T11:26:47.141Z,96384.25
2023-02-25T11:32:01.328Z,96390.34
2023-02-25T11:37:54.767Z,96391.41
2023-02-25T11:43:01.237Z,96398.72
2023-02-25T11:48:05.264Z,96415.31
2023-02-25T11:53:21.874Z,96427.94
2023-02-25T11:58:52.901Z,96424.41
2023-02-25T12:04:24.837Z,96422.38
2023-02-25T12:10:08.281Z,96441.94
2023-02-25T12:15:23.978Z,96439.63
2023-02-25T12:20:45.354Z,96440.09
2023-02-25T12:26:15.056Z,96437.09
2023-02-25T12:31:36.353Z,96432.94
2023-02-25T12:36:57.130Z,96438.97
2023-02-25T12:42:18.161Z,96436.97
2023-02-25T12:47:41.254Z,96437.44
2023-02-25T12:53:31.284Z,96447.56
2023-02-25T12:58:48.690Z,96450.41
2023-02-25T13:04:12.314Z,96458.81
2023-02-25T13:09:34.391Z,96456.09
2023-02-25T13:14:36.183Z,96453.47
2023-02-25T13:19:56.717Z,96447.63
2023-02-25T13:25:14.660Z,96458.31
2023-02-25T13:30:33.444Z,96451.50
2023-02-25T13:36:02.782Z,96462.81
2023-02-25T13:41:28.814Z,96457.69
2023-02-25T13:46:52.679Z,96467.59
2023-02-25T13:52:34.673Z,96458.72
2023-02-25T13:57:48.203Z,96471.78
2023-02-25T14:03:14.880Z,96485.22
2023-02-25T14:08:33.831Z,96487.47
2023-02-25T14:14:05.294Z,96497.31
2023-02-25T14:19:45.361Z,96494.59
2023-02-25T14:24:59.207Z,96507.25
2023-02-25T14:30:13.132Z,96508.81
2023-02-25T14:35:46.454Z,96512.03
2023-02-25T14:40:56.517Z,96512.97
2023-02-25T14:46:31.651Z,96522.53
2023-02-25T14:51:52.035Z,96527.06
2023-02-25T14:57:15.444Z,96525.13
2023-02-25T15:02:42.638Z,96538.31
2023-02-25T15:08:02.719Z,96544.75
2023-02-25T15:13:26.425Z,96545.84
2023-02-25T15:19:06.397Z,96569.09
2023-02-25T15:24:11.481Z,96564.56
2023-02-25T15:29:28.584Z,96567.91
2023-02-25T15:34:36.030Z,96580.06
2023-02-25T15:39:40.812Z,96584.25
2023-02-25T15:44:44.646Z,96595.56
2023-02-25T15:49:48.491Z,96610.22
2023-02-25T15:54:51.088Z,96615.28
2023-02-25T15:59:58.197Z,96619.69
2023-02-25T16:05:18.846Z,96633.69
2023-02-25T16:10:31.545Z,96663.53
2023-02-25T16:15:40.695Z,96665.16
2023-02-25T16:20:47.528Z,96683.84
2023-02-25T16:26:22.199Z,96697.25
2023-02-25T16:31:50.233Z,96697.81
2023-02-25T16:37:12.633Z,96701.31
2023-02-25T16:42:18.076Z,96715.16
2023-02-25T16:47:27.753Z,96711.78
2023-02-25T16:52:41.022Z,96716.06
2023-02-25T16:58:01.174Z,96724.00
2023-02-25T17:03:06.885Z,96732.59
2023-02-25T17:08:16.133Z,96742.03
2023-02-25T17:13:23.123Z,96745.13
2023-02-25T17:18:39.851Z,96760.59
2023-02-25T17:23:43.083Z,96771.88
2023-02-25T17:28:47.849Z,96776.59
2023-02-25T17:33:55.562Z,96781.66
2023-02-25T17:39:01.135Z,96794.19
2023-02-25T17:44:02.977Z,96793.13
2023-02-25T17:49:31.397Z,96798.22
2023-02-25T17:54:36.165Z,96789.19
2023-02-25T17:59:40.358Z,96808.75
2023-02-25T18:04:42.609Z,96799.75
2023-02-25T18:09:44.441Z,96821.63
2023-02-25T18:14:53.918Z,96824.03
2023-02-25T18:19:59.329Z,96830.56
2023-02-25T18:25:05.827Z,96833.69
2023-02-25T18:30:20.841Z,96838.72
2023-02-25T18:35:23.813Z,96844.00
2023-02-25T18:40:29.923Z,96852.03
2023-02-25T18:45:33.180Z,96861.69
2023-02-25T18:50:35.224Z,96872.13
2023-02-25T18:55:37.045Z,96872.44
2023-02-25T19:00:38.964Z,96873.81
2023-02-25T19:05:40.752Z,96890.28
2023-02-25T19:10:43.991Z,96901.63
2023-02-25T19:15:46.242Z,96899.63
2023-02-25T19:20:48.214Z,96912.44
2023-02-25T19:25:56.129Z,96926.84
2023-02-25T19:30:58.026Z,96930.47
2023-02-25T19:36:00.422Z,96934.28
2023-02-25T19:41:06.453Z,96941.69
2023-02-25T19:46:09.539Z,96947.09
2023-02-25T19:51:11.356Z,96951.28
2023-02-25T19:56:13.179Z,96962.56
2023-02-25T20:01:15.149Z,96969.44
2023-02-25T20:06:17.409Z,96974.75
2023-02-25T20:11:23.497Z,96970.00
2023-02-25T20:16:26.574Z,96979.59
2023-02-25T20:21:28.760Z,96988.66
2023-02-25T20:26:32.797Z,96994.81
2023-02-25T20:31:34.730Z,97001.09
2023-02-25T20:36:59.734Z,97009.31
2023-02-25T20:42:03.520Z,97011.75
2023-02-25T20:47:05.866Z,97011.75
2023-02-25T20:52:07.890Z,97013.16
2023-02-25T20:57:13.710Z,97023.34
2023-02-25T21:02:16.668Z,97014.97
2023-02-25T21:07:18.605Z,97026.00
2023-02-25T21:12:20.790Z,97032.25
2023-02-25T21:17:22.871Z,97032.03
2023-02-25T21:22:24.742Z,97033.53
2023-02-25T21:27:28.264Z,97043.03
2023-02-25T21:32:30.095Z,97037.34
2023-02-25T21:37:32.014Z,97043.16
2023-02-25T21:42:33.968Z,97050.44
2023-02-25T21:47:35.810Z,97053.56
2023-02-25T21:52:37.660Z,97054.03
2023-02-25T21:57:39.605Z,97051.94
2023-02-25T22:02:41.825Z,97059.47
2023-02-25T22:07:43.654Z,97059.94
2023-02-25T22:12:45.560Z,97060.53
2023-02-25T22:17:47.366Z,97072.69
2023-02-25T22:22:49.229Z,97081.00
2023-02-25T22:27:52.296Z,97086.13
2023-02-25T22:32:54.800Z,97085.75
2023-02-25T22:37:56.592Z,97092.16
2023-02-25T22:42:58.436Z,97098.28
2023-02-25T22:48:00.255Z,97101.28
2023-02-25T22:53:02.104Z,97101.19
2023-02-25T22:58:05.574Z,97109.75
2023-02-25T23:03:08.115Z,97126.31
2023-02-25T23:08:09.994Z,97116.31
2023-02-25T23:13:11.995Z,97129.63
2023-02-25T23:18:15.680Z,97135.75
2023-02-25T23:23:17.606Z,97131.56
2023-02-25T23:28:19.908Z,97134.97
2023-02-25T23:33:21.706Z,97138.06
2023-02-25T23:38:23.834Z,97143.63
2023-02-25T23:43:25.702Z,97158.50
2023-02-25T23:48:27.602Z,97151.69
2023-02-25T23:53:29.412Z,97157.09
2023-02-25T23:58:31.103Z,97161.53
